sensor_id;sensor_type;location;lat;lon;timestamp;P1;durP1;ratioP1;P2;durP2;ratioP2
14472;SDS011;7322;50.872;4.386;2024-03-08T00:02:16;6.43;;;5.73;;
14472;SDS011;7322;50.872;4.386;2024-03-08T00:04:45;6.13;;;5.47;;
14472;SDS011;7322;50.872;4.386;2024-03-08T00:07:13;5.77;;;5.17;;
14472;SDS011;7322;50.872;4.386;2024-03-08T00:09:40;6.07;;;5.47;;
14472;SDS011;7322;50.872;4.386;2024-03-08T00:12:07;6.93;;;5.90;;
14472;SDS011;7322;50.872;4.386;2024-03-08T00:14:35;6.27;;;5.57;;
14472;SDS011;7322;50.872;4.386;2024-03-08T00:17:04;6.00;;;5.40;;
14472;SDS011;7322;50.872;4.386;2024-03-08T00:19:31;7.33;;;5.80;;
14472;SDS011;7322;50.872;4.386;2024-03-08T00:22:00;6.23;;;5.40;;
14472;SDS011;7322;50.872;4.386;2024-03-08T00:24:28;6.83;;;5.53;;
14472;SDS011;7322;50.872;4.386;2024-03-08T00:26:56;6.57;;;5.87;;
14472;SDS011;7322;50.872;4.386;2024-03-08T00:29:23;6.40;;;5.77;;
14472;SDS011;7322;50.872;4.386;2024-03-08T00:31:51;7.00;;;5.37;;
14472;SDS011;7322;50.872;4.386;2024-03-08T00:34:18;6.00;;;5.40;;
14472;SDS011;7322;50.872;4.386;2024-03-08T00:36:45;7.77;;;6.13;;
14472;SDS011;7322;50.872;4.386;2024-03-08T00:39:14;6.37;;;5.70;;
14472;SDS011;7322;50.872;4.386;2024-03-08T00:41:41;6.90;;;5.93;;
14472;SDS011;7322;50.872;4.386;2024-03-08T00:44:11;7.03;;;5.53;;
14472;SDS011;7322;50.872;4.386;2024-03-08T00:46:38;6.73;;;6.00;;
14472;SDS011;7322;50.872;4.386;2024-03-08T00:49:05;6.47;;;5.77;;
14472;SDS011;7322;50.872;4.386;2024-03-08T00:51:33;7.47;;;5.77;;
14472;SDS011;7322;50.872;4.386;2024-03-08T00:54:00;6.83;;;6.03;;
14472;SDS011;7322;50.872;4.386;2024-03-08T00:56:28;7.73;;;6.10;;
14472;SDS011;7322;50.872;4.386;2024-03-08T00:58:54;6.27;;;5.57;;
14472;SDS011;7322;50.872;4.386;2024-03-08T01:01:24;6.97;;;6.27;;
14472;SDS011;7322;50.872;4.386;2024-03-08T01:03:51;5.80;;;5.30;;
14472;SDS011;7322;50.872;4.386;2024-03-08T01:06:18;6.50;;;5.80;;
14472;SDS011;7322;50.872;4.386;2024-03-08T01:08:46;6.57;;;5.67;;
14472;SDS011;7322;50.872;4.386;2024-03-08T01:11:13;6.97;;;5.73;;
14472;SDS011;7322;50.872;4.386;2024-03-08T01:13:41;7.23;;;6.53;;
14472;SDS011;7322;50.872;4.386;2024-03-08T01:16:09;6.40;;;5.67;;
14472;SDS011;7322;50.872;4.386;2024-03-08T01:18:36;8.00;;;6.20;;
14472;SDS011;7322;50.872;4.386;2024-03-08T01:21:03;7.93;;;6.87;;
14472;SDS011;7322;50.872;4.386;2024-03-08T01:23:31;7.17;;;6.40;;
14472;SDS011;7322;50.872;4.386;2024-03-08T01:25:59;7.13;;;6.27;;
14472;SDS011;7322;50.872;4.386;2024-03-08T01:28:27;7.17;;;6.13;;
14472;SDS011;7322;50.872;4.386;2024-03-08T01:30:56;6.97;;;6.23;;
14472;SDS011;7322;50.872;4.386;2024-03-08T01:33:23;7.17;;;6.37;;
14472;SDS011;7322;50.872;4.386;2024-03-08T01:35:51;7.00;;;6.30;;
14472;SDS011;7322;50.872;4.386;2024-03-08T01:38:18;7.80;;;6.17;;
14472;SDS011;7322;50.872;4.386;2024-03-08T01:40:46;6.87;;;6.17;;
14472;SDS011;7322;50.872;4.386;2024-03-08T01:43:20;6.70;;;6.10;;
14472;SDS011;7322;50.872;4.386;2024-03-08T01:45:48;7.07;;;6.23;;
14472;SDS011;7322;50.872;4.386;2024-03-08T01:48:17;8.10;;;6.30;;
14472;SDS011;7322;50.872;4.386;2024-03-08T01:50:47;6.63;;;5.93;;
14472;SDS011;7322;50.872;4.386;2024-03-08T01:53:15;6.87;;;6.17;;
14472;SDS011;7322;50.872;4.386;2024-03-08T01:55:45;7.57;;;6.50;;
14472;SDS011;7322;50.872;4.386;2024-03-08T01:58:14;6.90;;;6.20;;
14472;SDS011;7322;50.872;4.386;2024-03-08T02:00:47;7.37;;;6.67;;
14472;SDS011;7322;50.872;4.386;2024-03-08T02:03:17;6.90;;;6.20;;
14472;SDS011;7322;50.872;4.386;2024-03-08T02:05:45;6.97;;;6.23;;
14472;SDS011;7322;50.872;4.386;2024-03-08T02:08:12;7.60;;;6.80;;
14472;SDS011;7322;50.872;4.386;2024-03-08T02:10:39;7.30;;;6.60;;
14472;SDS011;7322;50.872;4.386;2024-03-08T02:13:07;7.20;;;6.17;;
14472;SDS011;7322;50.872;4.386;2024-03-08T02:15:54;6.73;;;5.90;;
14472;SDS011;7322;50.872;4.386;2024-03-08T02:18:23;6.70;;;6.00;;
14472;SDS011;7322;50.872;4.386;2024-03-08T02:20:52;7.03;;;6.33;;
14472;SDS011;7322;50.872;4.386;2024-03-08T02:23:19;6.90;;;6.20;;
14472;SDS011;7322;50.872;4.386;2024-03-08T02:25:47;7.27;;;6.43;;
14472;SDS011;7322;50.872;4.386;2024-03-08T02:28:15;7.87;;;6.83;;
14472;SDS011;7322;50.872;4.386;2024-03-08T02:30:43;7.50;;;6.60;;
14472;SDS011;7322;50.872;4.386;2024-03-08T02:33:15;7.00;;;6.17;;
14472;SDS011;7322;50.872;4.386;2024-03-08T02:35:43;8.57;;;6.60;;
14472;SDS011;7322;50.872;4.386;2024-03-08T02:38:12;7.43;;;6.53;;
14472;SDS011;7322;50.872;4.386;2024-03-08T02:40:41;7.07;;;6.37;;
14472;SDS011;7322;50.872;4.386;2024-03-08T02:43:09;8.27;;;7.03;;
14472;SDS011;7322;50.872;4.386;2024-03-08T02:45:36;7.87;;;6.60;;
14472;SDS011;7322;50.872;4.386;2024-03-08T02:48:04;8.33;;;6.40;;
14472;SDS011;7322;50.872;4.386;2024-03-08T02:50:33;7.87;;;7.07;;
14472;SDS011;7322;50.872;4.386;2024-03-08T02:53:01;7.20;;;6.07;;
14472;SDS011;7322;50.872;4.386;2024-03-08T02:55:33;7.40;;;6.37;;
14472;SDS011;7322;50.872;4.386;2024-03-08T02:58:02;7.43;;;6.60;;
14472;SDS011;7322;50.872;4.386;2024-03-08T03:00:30;7.37;;;6.60;;
14472;SDS011;7322;50.872;4.386;2024-03-08T03:02:59;7.87;;;6.70;;
14472;SDS011;7322;50.872;4.386;2024-03-08T03:05:28;7.33;;;6.63;;
14472;SDS011;7322;50.872;4.386;2024-03-08T03:07:56;8.10;;;6.93;;
14472;SDS011;7322;50.872;4.386;2024-03-08T03:10:23;7.13;;;6.43;;
14472;SDS011;7322;50.872;4.386;2024-03-08T03:12:52;9.33;;;7.40;;
14472;SDS011;7322;50.872;4.386;2024-03-08T03:15:19;7.47;;;6.63;;
14472;SDS011;7322;50.872;4.386;2024-03-08T03:17:47;8.13;;;6.80;;
14472;SDS011;7322;50.872;4.386;2024-03-08T03:20:16;7.60;;;6.80;;
14472;SDS011;7322;50.872;4.386;2024-03-08T03:22:48;7.40;;;6.60;;
14472;SDS011;7322;50.872;4.386;2024-03-08T03:25:21;7.60;;;6.80;;
14472;SDS011;7322;50.872;4.386;2024-03-08T03:27:52;7.67;;;6.63;;
14472;SDS011;7322;50.872;4.386;2024-03-08T03:30:23;7.80;;;7.00;;
14472;SDS011;7322;50.872;4.386;2024-03-08T03:32:51;9.20;;;7.30;;
14472;SDS011;7322;50.872;4.386;2024-03-08T03:35:19;7.80;;;7.00;;
14472;SDS011;7322;50.872;4.386;2024-03-08T03:37:47;7.83;;;7.03;;
14472;SDS011;7322;50.872;4.386;2024-03-08T03:40:26;8.57;;;7.17;;
14472;SDS011;7322;50.872;4.386;2024-03-08T03:42:58;8.03;;;7.23;;
14472;SDS011;7322;50.872;4.386;2024-03-08T03:45:28;7.23;;;6.53;;
14472;SDS011;7322;50.872;4.386;2024-03-08T03:47:58;7.40;;;6.70;;
14472;SDS011;7322;50.872;4.386;2024-03-08T03:50:25;8.30;;;6.90;;
14472;SDS011;7322;50.872;4.386;2024-03-08T03:52:56;7.90;;;7.10;;
14472;SDS011;7322;50.872;4.386;2024-03-08T03:55:27;7.97;;;7.00;;
14472;SDS011;7322;50.872;4.386;2024-03-08T03:57:58;7.57;;;6.87;;
14472;SDS011;7322;50.872;4.386;2024-03-08T04:00:27;7.87;;;7.03;;
14472;SDS011;7322;50.872;4.386;2024-03-08T04:02:58;9.10;;;7.70;;
14472;SDS011;7322;50.872;4.386;2024-03-08T04:05:25;7.70;;;6.90;;
14472;SDS011;7322;50.872;4.386;2024-03-08T04:07:52;7.53;;;6.83;;
14472;SDS011;7322;50.872;4.386;2024-03-08T04:10:19;8.17;;;7.23;;
14472;SDS011;7322;50.872;4.386;2024-03-08T04:12:47;7.60;;;6.90;;
14472;SDS011;7322;50.872;4.386;2024-03-08T04:15:15;7.67;;;6.97;;
14472;SDS011;7322;50.872;4.386;2024-03-08T04:17:43;7.60;;;6.90;;
14472;SDS011;7322;50.872;4.386;2024-03-08T04:20:11;8.07;;;7.20;;
14472;SDS011;7322;50.872;4.386;2024-03-08T04:22:39;8.30;;;7.53;;
14472;SDS011;7322;50.872;4.386;2024-03-08T04:25:07;7.77;;;6.97;;
14472;SDS011;7322;50.872;4.386;2024-03-08T04:27:35;8.43;;;7.57;;
14472;SDS011;7322;50.872;4.386;2024-03-08T04:30:03;8.30;;;7.50;;
14472;SDS011;7322;50.872;4.386;2024-03-08T04:32:34;7.83;;;7.03;;
14472;SDS011;7322;50.872;4.386;2024-03-08T04:35:01;7.53;;;6.60;;
14472;SDS011;7322;50.872;4.386;2024-03-08T04:37:29;8.00;;;7.20;;
14472;SDS011;7322;50.872;4.386;2024-03-08T04:39:56;8.50;;;7.60;;
14472;SDS011;7322;50.872;4.386;2024-03-08T04:42:28;8.43;;;7.50;;
14472;SDS011;7322;50.872;4.386;2024-03-08T04:44:57;7.33;;;6.63;;
14472;SDS011;7322;50.872;4.386;2024-03-08T04:47:25;7.90;;;7.10;;
14472;SDS011;7322;50.872;4.386;2024-03-08T04:49:54;7.97;;;7.17;;
14472;SDS011;7322;50.872;4.386;2024-03-08T04:52:34;7.50;;;6.80;;
14472;SDS011;7322;50.872;4.386;2024-03-08T04:55:05;8.17;;;7.37;;
14472;SDS011;7322;50.872;4.386;2024-03-08T04:57:38;7.60;;;6.90;;
14472;SDS011;7322;50.872;4.386;2024-03-08T05:00:10;7.90;;;7.10;;
14472;SDS011;7322;50.872;4.386;2024-03-08T05:02:42;7.73;;;6.97;;
14472;SDS011;7322;50.872;4.386;2024-03-08T05:05:12;7.80;;;7.00;;
14472;SDS011;7322;50.872;4.386;2024-03-08T05:07:49;7.83;;;7.03;;
14472;SDS011;7322;50.872;4.386;2024-03-08T05:10:16;8.27;;;7.37;;
14472;SDS011;7322;50.872;4.386;2024-03-08T05:12:43;7.50;;;6.80;;
14472;SDS011;7322;50.872;4.386;2024-03-08T05:15:11;7.80;;;7.10;;
14472;SDS011;7322;50.872;4.386;2024-03-08T05:17:38;7.57;;;6.63;;
14472;SDS011;7322;50.872;4.386;2024-03-08T05:20:06;7.83;;;7.03;;
14472;SDS011;7322;50.872;4.386;2024-03-08T05:22:39;8.57;;;7.37;;
14472;SDS011;7322;50.872;4.386;2024-03-08T05:25:06;8.37;;;7.40;;
14472;SDS011;7322;50.872;4.386;2024-03-08T05:27:35;7.83;;;6.80;;
14472;SDS011;7322;50.872;4.386;2024-03-08T05:30:02;7.93;;;7.13;;
14472;SDS011;7322;50.872;4.386;2024-03-08T05:32:32;7.30;;;6.50;;
14472;SDS011;7322;50.872;4.386;2024-03-08T05:34:59;7.50;;;6.80;;
14472;SDS011;7322;50.872;4.386;2024-03-08T05:37:26;8.13;;;6.90;;
14472;SDS011;7322;50.872;4.386;2024-03-08T05:39:55;7.63;;;6.83;;
14472;SDS011;7322;50.872;4.386;2024-03-08T05:42:22;8.30;;;7.47;;
14472;SDS011;7322;50.872;4.386;2024-03-08T05:44:49;8.10;;;7.30;;
14472;SDS011;7322;50.872;4.386;2024-03-08T05:47:22;7.77;;;6.93;;
14472;SDS011;7322;50.872;4.386;2024-03-08T05:49:52;7.17;;;6.57;;
14472;SDS011;7322;50.872;4.386;2024-03-08T05:52:21;7.37;;;6.57;;
14472;SDS011;7322;50.872;4.386;2024-03-08T05:54:48;6.97;;;6.27;;
14472;SDS011;7322;50.872;4.386;2024-03-08T05:57:21;8.90;;;7.40;;
14472;SDS011;7322;50.872;4.386;2024-03-08T05:59:58;7.37;;;6.67;;
14472;SDS011;7322;50.872;4.386;2024-03-08T06:02:32;8.30;;;7.37;;
14472;SDS011;7322;50.872;4.386;2024-03-08T06:04:59;7.37;;;6.67;;
14472;SDS011;7322;50.872;4.386;2024-03-08T06:07:27;8.60;;;6.73;;
14472;SDS011;7322;50.872;4.386;2024-03-08T06:09:55;7.30;;;6.50;;
14472;SDS011;7322;50.872;4.386;2024-03-08T06:12:24;7.07;;;6.37;;
14472;SDS011;7322;50.872;4.386;2024-03-08T06:14:54;6.77;;;6.03;;
14472;SDS011;7322;50.872;4.386;2024-03-08T06:17:35;6.93;;;6.03;;
14472;SDS011;7322;50.872;4.386;2024-03-08T06:20:02;6.53;;;5.60;;
14472;SDS011;7322;50.872;4.386;2024-03-08T06:22:35;6.90;;;5.60;;
14472;SDS011;7322;50.872;4.386;2024-03-08T06:25:03;6.73;;;5.63;;
14472;SDS011;7322;50.872;4.386;2024-03-08T06:27:32;6.03;;;5.27;;
14472;SDS011;7322;50.872;4.386;2024-03-08T06:30:04;6.10;;;5.50;;
14472;SDS011;7322;50.872;4.386;2024-03-08T06:32:34;6.43;;;5.27;;
14472;SDS011;7322;50.872;4.386;2024-03-08T06:35:02;5.77;;;5.10;;
14472;SDS011;7322;50.872;4.386;2024-03-08T06:37:33;5.77;;;5.17;;
14472;SDS011;7322;50.872;4.386;2024-03-08T06:40:01;6.90;;;6.00;;
14472;SDS011;7322;50.872;4.386;2024-03-08T06:42:37;5.53;;;5.03;;
14472;SDS011;7322;50.872;4.386;2024-03-08T06:45:04;6.10;;;5.50;;
14472;SDS011;7322;50.872;4.386;2024-03-08T06:47:34;6.77;;;5.10;;
14472;SDS011;7322;50.872;4.386;2024-03-08T06:50:01;5.50;;;5.00;;
14472;SDS011;7322;50.872;4.386;2024-03-08T06:52:29;5.33;;;4.83;;
14472;SDS011;7322;50.872;4.386;2024-03-08T06:55:11;5.97;;;4.70;;
14472;SDS011;7322;50.872;4.386;2024-03-08T06:57:40;7.50;;;5.13;;
14472;SDS011;7322;50.872;4.386;2024-03-08T07:00:14;5.97;;;4.80;;
14472;SDS011;7322;50.872;4.386;2024-03-08T07:02:43;6.67;;;4.73;;
14472;SDS011;7322;50.872;4.386;2024-03-08T07:05:20;6.47;;;5.43;;
14472;SDS011;7322;50.872;4.386;2024-03-08T07:07:48;5.53;;;4.97;;
14472;SDS011;7322;50.872;4.386;2024-03-08T07:13:08;6.53;;;5.27;;
14472;SDS011;7322;50.872;4.386;2024-03-08T07:15:35;6.93;;;5.60;;
14472;SDS011;7322;50.872;4.386;2024-03-08T07:18:08;7.10;;;5.67;;
14472;SDS011;7322;50.872;4.386;2024-03-08T07:20:45;6.00;;;5.40;;
14472;SDS011;7322;50.872;4.386;2024-03-08T07:23:20;6.27;;;5.27;;
14472;SDS011;7322;50.872;4.386;2024-03-08T07:26:03;7.07;;;5.60;;
14472;SDS011;7322;50.872;4.386;2024-03-08T07:28:32;5.93;;;5.23;;
14472;SDS011;7322;50.872;4.386;2024-03-08T07:30:59;8.63;;;5.87;;
14472;SDS011;7322;50.872;4.386;2024-03-08T07:33:45;7.70;;;6.17;;
14472;SDS011;7322;50.872;4.386;2024-03-08T07:36:18;9.37;;;5.97;;
14472;SDS011;7322;50.872;4.386;2024-03-08T07:38:49;6.53;;;5.83;;
14472;SDS011;7322;50.872;4.386;2024-03-08T07:41:23;7.50;;;5.70;;
14472;SDS011;7322;50.872;4.386;2024-03-08T07:43:54;8.47;;;6.00;;
14472;SDS011;7322;50.872;4.386;2024-03-08T07:46:21;8.10;;;5.97;;
14472;SDS011;7322;50.872;4.386;2024-03-08T07:48:48;6.30;;;4.30;;
14472;SDS011;7322;50.872;4.386;2024-03-08T07:51:16;9.43;;;5.80;;
14472;SDS011;7322;50.872;4.386;2024-03-08T07:53:44;7.90;;;5.23;;
14472;SDS011;7322;50.872;4.386;2024-03-08T07:56:11;6.57;;;4.73;;
14472;SDS011;7322;50.872;4.386;2024-03-08T07:58:39;6.83;;;5.17;;
14472;SDS011;7322;50.872;4.386;2024-03-08T08:01:15;5.60;;;4.57;;
14472;SDS011;7322;50.872;4.386;2024-03-08T08:06:23;6.97;;;5.00;;
14472;SDS011;7322;50.872;4.386;2024-03-08T08:08:51;5.83;;;5.17;;
14472;SDS011;7322;50.872;4.386;2024-03-08T08:11:19;5.90;;;4.80;;
14472;SDS011;7322;50.872;4.386;2024-03-08T08:13:46;7.90;;;4.70;;
14472;SDS011;7322;50.872;4.386;2024-03-08T08:16:15;5.63;;;5.10;;
14472;SDS011;7322;50.872;4.386;2024-03-08T08:18:43;7.37;;;5.87;;
14472;SDS011;7322;50.872;4.386;2024-03-08T08:21:11;5.63;;;5.03;;
14472;SDS011;7322;50.872;4.386;2024-03-08T08:23:38;6.80;;;5.50;;
14472;SDS011;7322;50.872;4.386;2024-03-08T08:26:05;5.93;;;5.17;;
14472;SDS011;7322;50.872;4.386;2024-03-08T08:28:33;6.27;;;4.90;;
14472;SDS011;7322;50.872;4.386;2024-03-08T08:31:01;6.27;;;5.67;;
14472;SDS011;7322;50.872;4.386;2024-03-08T08:33:30;6.07;;;5.40;;
14472;SDS011;7322;50.872;4.386;2024-03-08T08:36:00;7.30;;;5.57;;
14472;SDS011;7322;50.872;4.386;2024-03-08T08:38:28;7.57;;;5.27;;
14472;SDS011;7322;50.872;4.386;2024-03-08T08:40:55;6.63;;;5.93;;
14472;SDS011;7322;50.872;4.386;2024-03-08T08:43:27;6.73;;;5.40;;
14472;SDS011;7322;50.872;4.386;2024-03-08T08:45:54;7.43;;;5.60;;
14472;SDS011;7322;50.872;4.386;2024-03-08T08:48:21;6.47;;;5.57;;
14472;SDS011;7322;50.872;4.386;2024-03-08T08:50:52;6.23;;;5.50;;
14472;SDS011;7322;50.872;4.386;2024-03-08T08:53:20;7.10;;;5.90;;
14472;SDS011;7322;50.872;4.386;2024-03-08T08:55:47;6.60;;;5.70;;
14472;SDS011;7322;50.872;4.386;2024-03-08T08:58:14;8.83;;;6.07;;
14472;SDS011;7322;50.872;4.386;2024-03-08T09:00:44;6.50;;;5.77;;
14472;SDS011;7322;50.872;4.386;2024-03-08T09:03:11;7.87;;;6.13;;
14472;SDS011;7322;50.872;4.386;2024-03-08T09:05:38;5.73;;;5.13;;
14472;SDS011;7322;50.872;4.386;2024-03-08T09:08:10;6.97;;;5.73;;
14472;SDS011;7322;50.872;4.386;2024-03-08T09:10:38;6.30;;;5.70;;
14472;SDS011;7322;50.872;4.386;2024-03-08T09:13:05;7.13;;;5.70;;
14472;SDS011;7322;50.872;4.386;2024-03-08T09:15:34;8.10;;;6.47;;
14472;SDS011;7322;50.872;4.386;2024-03-08T09:18:01;7.20;;;5.70;;
14472;SDS011;7322;50.872;4.386;2024-03-08T09:20:30;6.50;;;5.80;;
14472;SDS011;7322;50.872;4.386;2024-03-08T09:22:57;6.83;;;5.80;;
14472;SDS011;7322;50.872;4.386;2024-03-08T09:25:26;6.67;;;5.87;;
14472;SDS011;7322;50.872;4.386;2024-03-08T09:27:53;6.60;;;5.90;;
14472;SDS011;7322;50.872;4.386;2024-03-08T09:30:20;6.47;;;5.73;;
14472;SDS011;7322;50.872;4.386;2024-03-08T09:32:48;6.53;;;5.70;;
14472;SDS011;7322;50.872;4.386;2024-03-08T09:35:16;6.10;;;5.50;;
14472;SDS011;7322;50.872;4.386;2024-03-08T09:37:43;6.23;;;5.60;;
14472;SDS011;7322;50.872;4.386;2024-03-08T09:40:18;7.07;;;6.00;;
14472;SDS011;7322;50.872;4.386;2024-03-08T09:42:52;6.17;;;5.57;;
14472;SDS011;7322;50.872;4.386;2024-03-08T09:45:29;6.33;;;5.73;;
14472;SDS011;7322;50.872;4.386;2024-03-08T09:48:06;7.17;;;5.97;;
14472;SDS011;7322;50.872;4.386;2024-03-08T09:50:40;7.13;;;6.20;;
14472;SDS011;7322;50.872;4.386;2024-03-08T09:53:08;7.23;;;5.97;;
14472;SDS011;7322;50.872;4.386;2024-03-08T09:55:40;6.40;;;5.80;;
14472;SDS011;7322;50.872;4.386;2024-03-08T09:58:09;6.30;;;5.70;;
14472;SDS011;7322;50.872;4.386;2024-03-08T10:01:09;6.23;;;5.63;;
14472;SDS011;7322;50.872;4.386;2024-03-08T10:03:38;6.43;;;5.83;;
14472;SDS011;7322;50.872;4.386;2024-03-08T10:06:12;6.37;;;5.73;;
14472;SDS011;7322;50.872;4.386;2024-03-08T10:08:41;6.50;;;5.90;;
14472;SDS011;7322;50.872;4.386;2024-03-08T10:11:08;6.23;;;5.63;;
14472;SDS011;7322;50.872;4.386;2024-03-08T10:13:38;6.67;;;6.07;;
14472;SDS011;7322;50.872;4.386;2024-03-08T10:16:06;6.63;;;6.03;;
14472;SDS011;7322;50.872;4.386;2024-03-08T10:18:34;7.63;;;6.03;;
14472;SDS011;7322;50.872;4.386;2024-03-08T10:21:02;6.73;;;6.03;;
14472;SDS011;7322;50.872;4.386;2024-03-08T10:23:32;6.43;;;5.83;;
14472;SDS011;7322;50.872;4.386;2024-03-08T10:26:11;7.07;;;6.37;;
14472;SDS011;7322;50.872;4.386;2024-03-08T10:31:54;6.57;;;5.97;;
14472;SDS011;7322;50.872;4.386;2024-03-08T10:34:26;6.90;;;6.20;;
14472;SDS011;7322;50.872;4.386;2024-03-08T10:36:54;6.57;;;5.87;;
14472;SDS011;7322;50.872;4.386;2024-03-08T10:39:33;7.33;;;6.47;;
14472;SDS011;7322;50.872;4.386;2024-03-08T10:42:04;7.10;;;6.47;;
14472;SDS011;7322;50.872;4.386;2024-03-08T10:44:47;7.23;;;6.10;;
14472;SDS011;7322;50.872;4.386;2024-03-08T10:47:22;6.80;;;6.07;;
14472;SDS011;7322;50.872;4.386;2024-03-08T10:49:55;7.07;;;6.37;;
14472;SDS011;7322;50.872;4.386;2024-03-08T10:52:35;7.23;;;6.53;;
14472;SDS011;7322;50.872;4.386;2024-03-08T10:55:03;8.73;;;6.50;;
14472;SDS011;7322;50.872;4.386;2024-03-08T10:57:37;6.60;;;5.97;;
14472;SDS011;7322;50.872;4.386;2024-03-08T11:00:07;6.43;;;5.70;;
14472;SDS011;7322;50.872;4.386;2024-03-08T11:02:36;7.23;;;6.00;;
14472;SDS011;7322;50.872;4.386;2024-03-08T11:05:04;6.17;;;5.50;;
14472;SDS011;7322;50.872;4.386;2024-03-08T11:07:46;6.47;;;5.87;;
14472;SDS011;7322;50.872;4.386;2024-03-08T11:10:18;6.67;;;5.97;;
14472;SDS011;7322;50.872;4.386;2024-03-08T11:12:46;6.60;;;5.97;;
14472;SDS011;7322;50.872;4.386;2024-03-08T11:15:16;6.77;;;6.17;;
14472;SDS011;7322;50.872;4.386;2024-03-08T11:17:48;6.40;;;5.73;;
14472;SDS011;7322;50.872;4.386;2024-03-08T11:20:16;6.83;;;6.07;;
14472;SDS011;7322;50.872;4.386;2024-03-08T11:22:48;5.93;;;5.40;;
14472;SDS011;7322;50.872;4.386;2024-03-08T11:25:33;7.30;;;6.57;;
14472;SDS011;7322;50.872;4.386;2024-03-08T11:28:08;7.50;;;5.80;;
14472;SDS011;7322;50.872;4.386;2024-03-08T11:30:43;6.47;;;5.87;;
14472;SDS011;7322;50.872;4.386;2024-03-08T11:33:12;6.40;;;5.70;;
14472;SDS011;7322;50.872;4.386;2024-03-08T11:35:40;6.47;;;5.87;;
14472;SDS011;7322;50.872;4.386;2024-03-08T11:38:12;6.03;;;5.50;;
14472;SDS011;7322;50.872;4.386;2024-03-08T11:40:42;6.77;;;6.07;;
14472;SDS011;7322;50.872;4.386;2024-03-08T11:43:10;7.13;;;6.00;;
14472;SDS011;7322;50.872;4.386;2024-03-08T11:46:08;6.90;;;5.90;;
14472;SDS011;7322;50.872;4.386;2024-03-08T11:48:37;6.60;;;5.70;;
14472;SDS011;7322;50.872;4.386;2024-03-08T11:51:13;6.40;;;5.80;;
14472;SDS011;7322;50.872;4.386;2024-03-08T11:53:44;6.73;;;5.87;;
14472;SDS011;7322;50.872;4.386;2024-03-08T11:56:18;8.20;;;5.70;;
14472;SDS011;7322;50.872;4.386;2024-03-08T11:58:52;6.10;;;5.50;;
14472;SDS011;7322;50.872;4.386;2024-03-08T12:01:22;6.17;;;5.57;;
14472;SDS011;7322;50.872;4.386;2024-03-08T12:03:57;6.00;;;5.40;;
14472;SDS011;7322;50.872;4.386;2024-03-08T12:06:25;6.27;;;5.60;;
14472;SDS011;7322;50.872;4.386;2024-03-08T12:08:54;6.17;;;5.57;;
14472;SDS011;7322;50.872;4.386;2024-03-08T12:11:21;6.53;;;5.93;;
14472;SDS011;7322;50.872;4.386;2024-03-08T12:13:49;6.10;;;5.47;;
14472;SDS011;7322;50.872;4.386;2024-03-08T12:16:16;6.80;;;6.10;;
14472;SDS011;7322;50.872;4.386;2024-03-08T12:18:46;6.20;;;5.60;;
14472;SDS011;7322;50.872;4.386;2024-03-08T12:21:13;6.47;;;5.87;;
14472;SDS011;7322;50.872;4.386;2024-03-08T12:23:45;6.30;;;5.70;;
14472;SDS011;7322;50.872;4.386;2024-03-08T12:26:16;6.53;;;5.37;;
14472;SDS011;7322;50.872;4.386;2024-03-08T12:28:45;6.77;;;6.03;;
14472;SDS011;7322;50.872;4.386;2024-03-08T12:31:13;6.53;;;5.73;;
14472;SDS011;7322;50.872;4.386;2024-03-08T12:33:49;6.23;;;5.17;;
14472;SDS011;7322;50.872;4.386;2024-03-08T12:36:16;6.10;;;5.50;;
14472;SDS011;7322;50.872;4.386;2024-03-08T12:38:45;6.23;;;5.47;;
14472;SDS011;7322;50.872;4.386;2024-03-08T12:41:13;6.33;;;5.73;;
14472;SDS011;7322;50.872;4.386;2024-03-08T12:43:40;7.13;;;5.73;;
14472;SDS011;7322;50.872;4.386;2024-03-08T12:46:08;6.33;;;5.73;;
14472;SDS011;7322;50.872;4.386;2024-03-08T12:48:35;6.70;;;6.00;;
14472;SDS011;7322;50.872;4.386;2024-03-08T12:51:07;6.30;;;5.70;;
14472;SDS011;7322;50.872;4.386;2024-03-08T12:53:34;5.83;;;5.33;;
14472;SDS011;7322;50.872;4.386;2024-03-08T12:56:01;6.90;;;6.20;;
14472;SDS011;7322;50.872;4.386;2024-03-08T12:58:32;6.10;;;5.50;;
14472;SDS011;7322;50.872;4.386;2024-03-08T13:01:01;7.00;;;5.80;;
14472;SDS011;7322;50.872;4.386;2024-03-08T13:03:29;6.10;;;5.50;;
14472;SDS011;7322;50.872;4.386;2024-03-08T13:05:57;5.87;;;5.27;;
14472;SDS011;7322;50.872;4.386;2024-03-08T13:08:25;6.10;;;5.50;;
14472;SDS011;7322;50.872;4.386;2024-03-08T13:10:54;6.83;;;6.13;;
14472;SDS011;7322;50.872;4.386;2024-03-08T13:13:22;5.93;;;5.33;;
14472;SDS011;7322;50.872;4.386;2024-03-08T13:15:50;5.77;;;5.20;;
14472;SDS011;7322;50.872;4.386;2024-03-08T13:18:18;6.47;;;5.60;;
14472;SDS011;7322;50.872;4.386;2024-03-08T13:20:46;6.37;;;5.50;;
14472;SDS011;7322;50.872;4.386;2024-03-08T13:23:19;6.23;;;5.47;;
14472;SDS011;7322;50.872;4.386;2024-03-08T13:25:48;6.40;;;5.70;;
14472;SDS011;7322;50.872;4.386;2024-03-08T13:28:16;6.20;;;5.60;;
14472;SDS011;7322;50.872;4.386;2024-03-08T13:30:50;7.10;;;5.70;;
14472;SDS011;7322;50.872;4.386;2024-03-08T13:33:17;7.30;;;5.70;;
14472;SDS011;7322;50.872;4.386;2024-03-08T13:35:45;5.77;;;5.10;;
14472;SDS011;7322;50.872;4.386;2024-03-08T13:38:12;6.03;;;5.43;;
14472;SDS011;7322;50.872;4.386;2024-03-08T13:40:40;5.70;;;5.10;;
14472;SDS011;7322;50.872;4.386;2024-03-08T13:43:08;6.23;;;5.23;;
14472;SDS011;7322;50.872;4.386;2024-03-08T13:45:36;5.60;;;5.10;;
14472;SDS011;7322;50.872;4.386;2024-03-08T13:48:04;5.60;;;5.10;;
14472;SDS011;7322;50.872;4.386;2024-03-08T13:50:32;5.63;;;5.03;;
14472;SDS011;7322;50.872;4.386;2024-03-08T13:53:01;6.00;;;5.50;;
14472;SDS011;7322;50.872;4.386;2024-03-08T13:55:29;5.93;;;5.33;;
14472;SDS011;7322;50.872;4.386;2024-03-08T13:57:56;7.43;;;5.27;;
14472;SDS011;7322;50.872;4.386;2024-03-08T14:00:26;6.37;;;5.60;;
14472;SDS011;7322;50.872;4.386;2024-03-08T14:02:58;5.90;;;5.40;;
14472;SDS011;7322;50.872;4.386;2024-03-08T14:05:25;5.43;;;4.93;;
14472;SDS011;7322;50.872;4.386;2024-03-08T14:07:52;5.73;;;5.23;;
14472;SDS011;7322;50.872;4.386;2024-03-08T14:10:20;5.70;;;5.20;;
14472;SDS011;7322;50.872;4.386;2024-03-08T14:12:48;5.60;;;5.10;;
14472;SDS011;7322;50.872;4.386;2024-03-08T14:15:18;5.90;;;5.27;;
14472;SDS011;7322;50.872;4.386;2024-03-08T14:17:53;5.47;;;4.97;;
14472;SDS011;7322;50.872;4.386;2024-03-08T14:20:20;5.93;;;5.03;;
14472;SDS011;7322;50.872;4.386;2024-03-08T14:22:50;5.50;;;5.00;;
14472;SDS011;7322;50.872;4.386;2024-03-08T14:25:17;5.70;;;5.20;;
14472;SDS011;7322;50.872;4.386;2024-03-08T14:27:45;5.10;;;4.70;;
14472;SDS011;7322;50.872;4.386;2024-03-08T14:30:12;5.77;;;5.17;;
14472;SDS011;7322;50.872;4.386;2024-03-08T14:32:58;5.33;;;4.83;;
14472;SDS011;7322;50.872;4.386;2024-03-08T14:35:26;5.57;;;5.07;;
14472;SDS011;7322;50.872;4.386;2024-03-08T14:37:54;5.20;;;4.70;;
14472;SDS011;7322;50.872;4.386;2024-03-08T14:40:23;5.83;;;5.10;;
14472;SDS011;7322;50.872;4.386;2024-03-08T14:42:51;5.53;;;4.90;;
14472;SDS011;7322;50.872;4.386;2024-03-08T14:45:18;5.33;;;4.73;;
14472;SDS011;7322;50.872;4.386;2024-03-08T14:47:45;5.60;;;4.97;;
14472;SDS011;7322;50.872;4.386;2024-03-08T14:50:17;5.87;;;5.20;;
14472;SDS011;7322;50.872;4.386;2024-03-08T14:52:45;5.63;;;5.13;;
14472;SDS011;7322;50.872;4.386;2024-03-08T14:55:13;5.60;;;5.10;;
14472;SDS011;7322;50.872;4.386;2024-03-08T14:57:42;4.93;;;4.30;;
14472;SDS011;7322;50.872;4.386;2024-03-08T15:00:12;5.33;;;4.83;;
14472;SDS011;7322;50.872;4.386;2024-03-08T15:02:51;5.10;;;4.60;;
14472;SDS011;7322;50.872;4.386;2024-03-08T15:05:20;4.80;;;4.40;;
14472;SDS011;7322;50.872;4.386;2024-03-08T15:07:51;5.83;;;5.20;;
14472;SDS011;7322;50.872;4.386;2024-03-08T15:10:19;5.07;;;4.40;;
14472;SDS011;7322;50.872;4.386;2024-03-08T15:12:49;5.80;;;5.20;;
14472;SDS011;7322;50.872;4.386;2024-03-08T15:15:20;5.13;;;4.63;;
14472;SDS011;7322;50.872;4.386;2024-03-08T15:17:49;5.27;;;4.77;;
14472;SDS011;7322;50.872;4.386;2024-03-08T15:20:20;5.40;;;4.90;;
14472;SDS011;7322;50.872;4.386;2024-03-08T15:22:50;5.07;;;4.63;;
14472;SDS011;7322;50.872;4.386;2024-03-08T15:25:20;5.00;;;4.50;;